sensor_id;sensor_type;location;lat;lon;timestamp;pressure;altitude;pressure_sealevel;temperature;humidity
14383;BME280;7275;50.328;8.720;2023-10-31T00:01:09;97896.97;;;18.22;60.82
14383;BME280;7275;50.328;8.720;2023-10-31T00:03:37;97877.94;;;18.25;60.41
14383;BME280;7275;50.328;8.720;2023-10-31T00:06:07;97884.69;;;18.29;59.89
14383;BME280;7275;50.328;8.720;2023-10-31T00:08:34;97888.88;;;18.32;59.63
14383;BME280;7275;50.328;8.720;2023-10-31T00:11:02;97880.41;;;18.36;59.46
14383;BME280;7275;50.328;8.720;2023-10-31T00:13:29;97889.66;;;18.42;58.69
14383;BME280;7275;50.328;8.720;2023-10-31T00:15:57;97896.19;;;18.40;58.31
14383;BME280;7275;50.328;8.720;2023-10-31T00:18:26;97903.66;;;18.36;57.95
14383;BME280;7275;50.328;8.720;2023-10-31T00:20:53;97908.88;;;18.38;57.62
14383;BME280;7275;50.328;8.720;2023-10-31T00:23:22;97909.44;;;18.31;57.60
14383;BME280;7275;50.328;8.720;2023-10-31T00:25:49;97897.94;;;18.21;57.48
14383;BME280;7275;50.328;8.720;2023-10-31T00:28:17;97914.56;;;18.25;57.25
14383;BME280;7275;50.328;8.720;2023-10-31T00:30:44;97923.88;;;18.21;56.94
14383;BME280;7275;50.328;8.720;2023-10-31T00:33:12;97928.13;;;18.14;56.79
14383;BME280;7275;50.328;8.720;2023-10-31T00:35:41;97926.59;;;18.11;56.94
14383;BME280;7275;50.328;8.720;2023-10-31T00:38:09;97934.44;;;18.13;56.99
14383;BME280;7275;50.328;8.720;2023-10-31T00:40:37;97946.16;;;18.12;56.93
14383;BME280;7275;50.328;8.720;2023-10-31T00:43:04;97951.78;;;18.09;56.84
14383;BME280;7275;50.328;8.720;2023-10-31T00:45:32;97965.97;;;18.19;56.86
14383;BME280;7275;50.328;8.720;2023-10-31T00:47:59;97971.59;;;18.16;56.65
14383;BME280;7275;50.328;8.720;2023-10-31T00:50:27;97975.66;;;18.20;56.65
14383;BME280;7275;50.328;8.720;2023-10-31T00:52:56;97972.03;;;18.21;56.55
14383;BME280;7275;50.328;8.720;2023-10-31T00:55:24;97975.41;;;18.23;56.63
14383;BME280;7275;50.328;8.720;2023-10-31T00:57:51;97974.38;;;18.24;56.85
14383;BME280;7275;50.328;8.720;2023-10-31T01:00:19;97978.06;;;18.23;57.03
14383;BME280;7275;50.328;8.720;2023-10-31T01:02:47;97983.81;;;18.28;56.89
14383;BME280;7275;50.328;8.720;2023-10-31T01:05:15;97976.38;;;18.22;56.37
14383;BME280;7275;50.328;8.720;2023-10-31T01:07:42;97976.38;;;18.22;56.44
14383;BME280;7275;50.328;8.720;2023-10-31T01:10:11;97980.16;;;18.19;56.61
14383;BME280;7275;50.328;8.720;2023-10-31T01:12:39;97986.38;;;18.20;56.13
14383;BME280;7275;50.328;8.720;2023-10-31T01:15:07;97977.50;;;18.19;56.03
14383;BME280;7275;50.328;8.720;2023-10-31T01:17:34;97980.47;;;18.16;56.17
14383;BME280;7275;50.328;8.720;2023-10-31T01:20:02;97983.00;;;18.18;56.01
14383;BME280;7275;50.328;8.720;2023-10-31T01:22:30;97991.72;;;18.20;56.01
14383;BME280;7275;50.328;8.720;2023-10-31T01:24:57;97988.19;;;18.19;55.61
14383;BME280;7275;50.328;8.720;2023-10-31T01:27:26;97978.63;;;18.17;55.59
14383;BME280;7275;50.328;8.720;2023-10-31T01:29:54;97977.94;;;18.15;55.61
14383;BME280;7275;50.328;8.720;2023-10-31T01:32:21;97978.63;;;18.17;55.73
14383;BME280;7275;50.328;8.720;2023-10-31T01:34:49;97973.59;;;18.14;55.45
14383;BME280;7275;50.328;8.720;2023-10-31T01:37:17;97977.81;;;18.16;55.47
14383;BME280;7275;50.328;8.720;2023-10-31T01:39:45;97974.56;;;18.13;55.68
14383;BME280;7275;50.328;8.720;2023-10-31T01:42:13;97982.59;;;18.13;55.71
14383;BME280;7275;50.328;8.720;2023-10-31T01:44:42;97982.91;;;18.10;55.62
14383;BME280;7275;50.328;8.720;2023-10-31T01:47:10;97984.88;;;18.08;55.24
14383;BME280;7275;50.328;8.720;2023-10-31T01:49:38;97976.31;;;18.04;55.48
14383;BME280;7275;50.328;8.720;2023-10-31T01:52:06;97975.88;;;17.99;55.55
14383;BME280;7275;50.328;8.720;2023-10-31T01:54:34;97979.84;;;17.95;55.38
14383;BME280;7275;50.328;8.720;2023-10-31T01:57:02;97985.06;;;17.87;55.30
14383;BME280;7275;50.328;8.720;2023-10-31T01:59:31;97989.03;;;17.83;55.38
14383;BME280;7275;50.328;8.720;2023-10-31T02:02:00;97987.91;;;17.76;55.49
14383;BME280;7275;50.328;8.720;2023-10-31T02:04:28;97991.84;;;17.72;55.34
14383;BME280;7275;50.328;8.720;2023-10-31T02:06:56;97979.47;;;17.71;55.38
14383;BME280;7275;50.328;8.720;2023-10-31T02:09:23;97994.81;;;17.69;55.36
14383;BME280;7275;50.328;8.720;2023-10-31T02:11:52;97994.81;;;17.69;55.39
14383;BME280;7275;50.328;8.720;2023-10-31T02:14:23;97997.47;;;17.69;55.34
14383;BME280;7275;50.328;8.720;2023-10-31T02:16:51;98010.00;;;17.69;55.29
14383;BME280;7275;50.328;8.720;2023-10-31T02:19:20;98004.41;;;17.62;55.24
14383;BME280;7275;50.328;8.720;2023-10-31T02:21:49;98003.38;;;17.63;55.41
14383;BME280;7275;50.328;8.720;2023-10-31T02:24:16;97998.34;;;17.60;55.14
14383;BME280;7275;50.328;8.720;2023-10-31T02:26:44;97999.75;;;17.54;55.14
14383;BME280;7275;50.328;8.720;2023-10-31T02:29:12;97999.47;;;17.48;55.14
14383;BME280;7275;50.328;8.720;2023-10-31T02:31:39;98005.63;;;17.39;55.42
14383;BME280;7275;50.328;8.720;2023-10-31T02:34:07;98007.59;;;17.37;55.33
14383;BME280;7275;50.328;8.720;2023-10-31T02:36:35;98005.50;;;17.31;55.25
14383;BME280;7275;50.328;8.720;2023-10-31T02:39:04;98015.34;;;17.21;55.03
14383;BME280;7275;50.328;8.720;2023-10-31T02:41:32;98013.19;;;17.15;54.98
14383;BME280;7275;50.328;8.720;2023-10-31T02:43:59;98003.53;;;17.14;55.07
14383;BME280;7275;50.328;8.720;2023-10-31T02:46:27;98009.28;;;17.09;55.04
14383;BME280;7275;50.328;8.720;2023-10-31T02:48:54;98024.75;;;17.06;54.58
14383;BME280;7275;50.328;8.720;2023-10-31T02:51:22;98016.28;;;17.01;54.73
14383;BME280;7275;50.328;8.720;2023-10-31T02:53:50;98024.69;;;16.96;54.74
14383;BME280;7275;50.328;8.720;2023-10-31T02:56:20;98020.91;;;16.89;54.55
14383;BME280;7275;50.328;8.720;2023-10-31T02:58:47;98027.91;;;16.81;54.63
14383;BME280;7275;50.328;8.720;2023-10-31T03:01:15;98041.66;;;16.76;54.56
14383;BME280;7275;50.328;8.720;2023-10-31T03:03:44;98045.44;;;16.73;54.63
14383;BME280;7275;50.328;8.720;2023-10-31T03:06:11;98051.88;;;16.71;54.67
14383;BME280;7275;50.328;8.720;2023-10-31T03:08:39;98057.81;;;16.74;54.50
14383;BME280;7275;50.328;8.720;2023-10-31T03:11:06;98063.41;;;16.71;54.62
14383;BME280;7275;50.328;8.720;2023-10-31T03:13:35;98066.91;;;16.62;54.41
14383;BME280;7275;50.328;8.720;2023-10-31T03:16:03;98063.97;;;16.65;54.51
14383;BME280;7275;50.328;8.720;2023-10-31T03:18:31;98063.94;;;16.56;54.39
14383;BME280;7275;50.328;8.720;2023-10-31T03:20:58;98077.38;;;16.54;54.57
14383;BME280;7275;50.328;8.720;2023-10-31T03:23:26;98069.66;;;16.51;54.45
14383;BME280;7275;50.328;8.720;2023-10-31T03:25:53;98093.81;;;16.50;54.25
14383;BME280;7275;50.328;8.720;2023-10-31T03:28:21;98081.09;;;16.42;54.25
14383;BME280;7275;50.328;8.720;2023-10-31T03:30:51;98092.47;;;16.44;54.53
14383;BME280;7275;50.328;8.720;2023-10-31T03:33:19;98111.00;;;16.46;54.32
14383;BME280;7275;50.328;8.720;2023-10-31T03:35:46;98098.78;;;16.43;54.49
14383;BME280;7275;50.328;8.720;2023-10-31T03:38:14;98100.44;;;16.35;54.57
14383;BME280;7275;50.328;8.720;2023-10-31T03:40:41;98093.69;;;16.31;54.42
14383;BME280;7275;50.328;8.720;2023-10-31T03:43:09;98106.53;;;16.26;54.55
14383;BME280;7275;50.328;8.720;2023-10-31T03:45:37;98111.03;;;16.25;54.42
14383;BME280;7275;50.328;8.720;2023-10-31T03:48:06;98120.88;;;16.25;54.26
14383;BME280;7275;50.328;8.720;2023-10-31T03:50:34;98120.25;;;16.21;54.55
14383;BME280;7275;50.328;8.720;2023-10-31T03:53:01;98122.69;;;16.24;54.42
14383;BME280;7275;50.328;8.720;2023-10-31T03:55:29;98120.25;;;16.21;54.80
14383;BME280;7275;50.328;8.720;2023-10-31T03:57:57;98131.72;;;16.12;54.89
14383;BME280;7275;50.328;8.720;2023-10-31T04:00:24;98136.22;;;16.12;54.85
14383;BME280;7275;50.328;8.720;2023-10-31T04:02:52;98137.69;;;16.05;55.09
14383;BME280;7275;50.328;8.720;2023-10-31T04:05:21;98138.34;;;15.97;54.82
14383;BME280;7275;50.328;8.720;2023-10-31T04:07:49;98145.88;;;15.92;54.93
14383;BME280;7275;50.328;8.720;2023-10-31T04:10:18;98142.56;;;15.79;55.39
14383;BME280;7275;50.328;8.720;2023-10-31T04:12:46;98145.22;;;15.79;55.39
14383;BME280;7275;50.328;8.720;2023-10-31T04:15:13;98149.84;;;15.77;55.46
14383;BME280;7275;50.328;8.720;2023-10-31T04:17:40;98141.22;;;15.73;55.48
14383;BME280;7275;50.328;8.720;2023-10-31T04:20:09;98147.78;;;15.69;55.61
14383;BME280;7275;50.328;8.720;2023-10-31T04:22:38;98146.13;;;15.68;55.66
14383;BME280;7275;50.328;8.720;2023-10-31T04:25:06;98134.25;;;15.61;55.79
14383;BME280;7275;50.328;8.720;2023-10-31T04:27:33;98142.38;;;15.60;55.97
14383;BME280;7275;50.328;8.720;2023-10-31T04:30:01;98143.25;;;15.60;55.92
14383;BME280;7275;50.328;8.720;2023-10-31T04:32:29;98149.03;;;15.54;56.09
14383;BME280;7275;50.328;8.720;2023-10-31T04:34:56;98157.88;;;15.55;56.18
14383;BME280;7275;50.328;8.720;2023-10-31T04:37:24;98160.09;;;15.50;56.52
14383;BME280;7275;50.328;8.720;2023-10-31T04:39:53;98162.03;;;15.48;56.71
14383;BME280;7275;50.328;8.720;2023-10-31T04:42:21;98167.38;;;15.48;56.75
14383;BME280;7275;50.328;8.720;2023-10-31T04:44:48;98177.88;;;15.49;57.18
14383;BME280;7275;50.328;8.720;2023-10-31T04:47:16;98176.78;;;15.52;57.32
14383;BME280;7275;50.328;8.720;2023-10-31T04:49:44;98177.75;;;15.51;57.50
14383;BME280;7275;50.328;8.720;2023-10-31T04:52:11;98181.28;;;15.51;57.60
14383;BME280;7275;50.328;8.720;2023-10-31T04:54:39;98183.44;;;15.57;57.54
14383;BME280;7275;50.328;8.720;2023-10-31T04:57:08;98181.84;;;15.55;57.76
14383;BME280;7275;50.328;8.720;2023-10-31T04:59:36;98181.34;;;15.61;57.51
14383;BME280;7275;50.328;8.720;2023-10-31T05:02:04;98185.44;;;15.65;57.79
14383;BME280;7275;50.328;8.720;2023-10-31T05:04:31;98177.66;;;15.73;57.71
14383;BME280;7275;50.328;8.720;2023-10-31T05:06:59;98181.19;;;15.73;57.80
14383;BME280;7275;50.328;8.720;2023-10-31T05:09:27;98179.16;;;15.77;57.78
14383;BME280;7275;50.328;8.720;2023-10-31T05:11:55;98187.50;;;15.72;57.95
14383;BME280;7275;50.328;8.720;2023-10-31T05:14:24;98183.75;;;15.75;57.77
14383;BME280;7275;50.328;8.720;2023-10-31T05:16:51;98186.00;;;15.79;57.66
14383;BME280;7275;50.328;8.720;2023-10-31T05:19:19;98185.44;;;15.76;57.67
14383;BME280;7275;50.328;8.720;2023-10-31T05:21:46;98181.66;;;15.78;57.70
14383;BME280;7275;50.328;8.720;2023-10-31T05:24:14;98175.75;;;15.75;57.80
14383;BME280;7275;50.328;8.720;2023-10-31T05:26:41;98184.13;;;15.70;57.77
14383;BME280;7275;50.328;8.720;2023-10-31T05:29:10;98184.38;;;15.67;57.97
14383;BME280;7275;50.328;8.720;2023-10-31T05:31:39;98186.56;;;15.62;58.41
14383;BME280;7275;50.328;8.720;2023-10-31T05:34:07;98177.59;;;15.63;58.20
14383;BME280;7275;50.328;8.720;2023-10-31T05:36:35;98184.75;;;15.63;58.43
14383;BME280;7275;50.328;8.720;2023-10-31T05:39:03;98193.06;;;15.69;58.26
14383;BME280;7275;50.328;8.720;2023-10-31T05:41:30;98196.59;;;15.70;58.27
14383;BME280;7275;50.328;8.720;2023-10-31T05:44:00;98195.75;;;15.69;58.32
14383;BME280;7275;50.328;8.720;2023-10-31T05:46:28;98199.00;;;15.73;58.40
14383;BME280;7275;50.328;8.720;2023-10-31T05:48:57;98200.47;;;15.77;58.16
14383;BME280;7275;50.328;8.720;2023-10-31T05:51:24;98198.63;;;15.77;58.12
14383;BME280;7275;50.328;8.720;2023-10-31T05:53:52;98204.94;;;15.76;58.24
14383;BME280;7275;50.328;8.720;2023-10-31T05:56:20;98207.47;;;15.78;58.15
14383;BME280;7275;50.328;8.720;2023-10-31T05:58:47;98205.06;;;15.75;58.13
14383;BME280;7275;50.328;8.720;2023-10-31T06:01:15;98211.13;;;15.77;58.14
14383;BME280;7275;50.328;8.720;2023-10-31T06:03:42;98214.97;;;15.73;58.01
14383;BME280;7275;50.328;8.720;2023-10-31T06:06:12;98213.81;;;15.66;58.45
14383;BME280;7275;50.328;8.720;2023-10-31T06:08:40;98214.38;;;15.69;58.31
14383;BME280;7275;50.328;8.720;2023-10-31T06:11:09;98209.56;;;15.63;58.43
14383;BME280;7275;50.328;8.720;2023-10-31T06:13:39;98202.28;;;15.65;58.53
14383;BME280;7275;50.328;8.720;2023-10-31T06:16:07;98212.22;;;15.74;58.34
14383;BME280;7275;50.328;8.720;2023-10-31T06:18:35;98223.72;;;15.75;58.40
14383;BME280;7275;50.328;8.720;2023-10-31T06:21:02;98231.44;;;15.78;58.51
14383;BME280;7275;50.328;8.720;2023-10-31T06:23:31;98233.59;;;15.84;58.22
14383;BME280;7275;50.328;8.720;2023-10-31T06:25:59;98239.41;;;15.89;58.12
14383;BME280;7275;50.328;8.720;2023-10-31T06:28:26;98236.75;;;15.89;58.33
14383;BME280;7275;50.328;8.720;2023-10-31T06:30:54;98247.78;;;15.84;58.33
14383;BME280;7275;50.328;8.720;2023-10-31T06:33:21;98253.81;;;15.86;58.39
14383;BME280;7275;50.328;8.720;2023-10-31T06:35:49;98258.50;;;15.94;58.18
14383;BME280;7275;50.328;8.720;2023-10-31T06:38:18;98258.41;;;15.95;57.97
14383;BME280;7275;50.328;8.720;2023-10-31T06:40:47;98268.09;;;15.96;58.24
14383;BME280;7275;50.328;8.720;2023-10-31T06:43:14;98269.66;;;15.99;57.92
14383;BME280;7275;50.328;8.720;2023-10-31T06:45:42;98271.25;;;16.02;57.81
14383;BME280;7275;50.328;8.720;2023-10-31T06:48:09;98279.22;;;16.02;57.98
14383;BME280;7275;50.328;8.720;2023-10-31T06:50:37;98281.53;;;16.06;57.76
14383;BME280;7275;50.328;8.720;2023-10-31T06:53:05;98291.19;;;16.07;57.98
14383;BME280;7275;50.328;8.720;2023-10-31T06:55:32;98282.97;;;16.10;57.66
14383;BME280;7275;50.328;8.720;2023-10-31T06:58:01;98297.72;;;16.14;57.50
14383;BME280;7275;50.328;8.720;2023-10-31T07:00:28;98296.81;;;16.04;57.95
14383;BME280;7275;50.328;8.720;2023-10-31T07:02:56;98302.84;;;16.06;57.98
14383;BME280;7275;50.328;8.720;2023-10-31T07:05:25;98304.28;;;16.10;57.84
14383;BME280;7275;50.328;8.720;2023-10-31T07:07:52;98310.72;;;16.08;57.76
14383;BME280;7275;50.328;8.720;2023-10-31T07:10:20;98314.22;;;16.08;57.68
14383;BME280;7275;50.328;8.720;2023-10-31T07:12:48;98307.78;;;16.11;57.80
14383;BME280;7275;50.328;8.720;2023-10-31T07:15:17;98310.59;;;16.09;57.61
14383;BME280;7275;50.328;8.720;2023-10-31T07:17:44;98318.22;;;16.14;57.54
14383;BME280;7275;50.328;8.720;2023-10-31T07:20:12;98322.44;;;16.16;57.64
14383;BME280;7275;50.328;8.720;2023-10-31T07:22:39;98316.75;;;16.10;58.01
14383;BME280;7275;50.328;8.720;2023-10-31T07:25:08;98328.38;;;16.09;58.15
14383;BME280;7275;50.328;8.720;2023-10-31T07:27:35;98328.50;;;16.18;58.01
14383;BME280;7275;50.328;8.720;2023-10-31T07:30:04;98328.22;;;16.21;57.88
14383;BME280;7275;50.328;8.720;2023-10-31T07:32:33;98331.75;;;16.22;57.92
14383;BME280;7275;50.328;8.720;2023-10-31T07:35:01;98340.81;;;16.30;57.81
14383;BME280;7275;50.328;8.720;2023-10-31T07:37:29;98344.06;;;16.34;57.72
14383;BME280;7275;50.328;8.720;2023-10-31T07:39:58;98352.78;;;16.36;57.53
14383;BME280;7275;50.328;8.720;2023-10-31T07:42:26;98353.28;;;16.41;57.29
14383;BME280;7275;50.328;8.720;2023-10-31T07:44:54;98351.19;;;16.44;57.21
14383;BME280;7275;50.328;8.720;2023-10-31T07:47:22;98366.13;;;16.36;57.39
14383;BME280;7275;50.328;8.720;2023-10-31T07:49:51;98363.66;;;16.44;57.14
14383;BME280;7275;50.328;8.720;2023-10-31T07:52:20;98362.13;;;16.41;57.12
14383;BME280;7275;50.328;8.720;2023-10-31T07:54:47;98363.44;;;16.47;57.05
14383;BME280;7275;50.328;8.720;2023-10-31T07:57:15;98371.69;;;16.44;57.16
14383;BME280;7275;50.328;8.720;2023-10-31T07:59:42;98368.63;;;16.48;56.99
14383;BME280;7275;50.328;8.720;2023-10-31T08:02:10;98368.63;;;16.48;57.06
14383;BME280;7275;50.328;8.720;2023-10-31T08:04:37;98367.06;;;16.46;57.03
14383;BME280;7275;50.328;8.720;2023-10-31T08:07:06;98374.97;;;16.47;57.02
14383;BME280;7275;50.328;8.720;2023-10-31T08:09:34;98373.91;;;16.50;56.99
14383;BME280;7275;50.328;8.720;2023-10-31T08:12:01;98378.09;;;16.52;56.86
14383;BME280;7275;50.328;8.720;2023-10-31T08:14:29;98384.78;;;16.47;56.97
14383;BME280;7275;50.328;8.720;2023-10-31T08:16:57;98397.16;;;16.48;56.88
14383;BME280;7275;50.328;8.720;2023-10-31T08:19:25;98399.59;;;16.51;56.95
14383;BME280;7275;50.328;8.720;2023-10-31T08:21:52;98400.91;;;16.45;57.02
14383;BME280;7275;50.328;8.720;2023-10-31T08:24:24;98405.41;;;16.45;56.88
14383;BME280;7275;50.328;8.720;2023-10-31T08:26:51;98406.34;;;16.44;57.04
14383;BME280;7275;50.328;8.720;2023-10-31T08:29:19;98404.53;;;16.44;57.13
14383;BME280;7275;50.328;8.720;2023-10-31T08:31:46;98419.84;;;16.31;57.45
14383;BME280;7275;50.328;8.720;2023-10-31T08:34:14;98414.13;;;16.36;57.51
14383;BME280;7275;50.328;8.720;2023-10-31T08:36:42;98422.84;;;16.38;57.43
14383;BME280;7275;50.328;8.720;2023-10-31T08:39:09;98420.53;;;16.44;57.20
14383;BME280;7275;50.328;8.720;2023-10-31T08:41:50;98421.63;;;16.42;57.39
14383;BME280;7275;50.328;8.720;2023-10-31T08:44:18;98426.16;;;16.41;57.54
14383;BME280;7275;50.328;8.720;2023-10-31T08:46:45;98428.31;;;16.36;57.74
14383;BME280;7275;50.328;8.720;2023-10-31T08:49:14;98426.25;;;16.40;57.85
14383;BME280;7275;50.328;8.720;2023-10-31T08:51:42;98431.34;;;16.43;57.70
14383;BME280;7275;50.328;8.720;2023-10-31T08:54:10;98448.81;;;16.36;57.81
14383;BME280;7275;50.328;8.720;2023-10-31T08:56:37;98446.38;;;16.44;57.79
14383;BME280;7275;50.328;8.720;2023-10-31T08:59:06;98455.13;;;16.35;58.11
14383;BME280;7275;50.328;8.720;2023-10-31T09:01:34;98445.41;;;16.45;57.85
14383;BME280;7275;50.328;8.720;2023-10-31T09:04:02;98453.41;;;16.34;57.96
14383;BME280;7275;50.328;8.720;2023-10-31T09:06:29;98448.66;;;16.48;57.80
14383;BME280;7275;50.328;8.720;2023-10-31T09:08:57;98455.47;;;16.52;57.61
14383;BME280;7275;50.328;8.720;2023-10-31T09:11:24;98459.34;;;16.59;57.33
14383;BME280;7275;50.328;8.720;2023-10-31T09:13:52;98474.50;;;16.48;57.51
14383;BME280;7275;50.328;8.720;2023-10-31T09:16:21;98472.69;;;16.59;57.23
14383;BME280;7275;50.328;8.720;2023-10-31T09:18:48;98473.03;;;16.66;56.98
14383;BME280;7275;50.328;8.720;2023-10-31T09:21:16;98480.06;;;16.67;57.09
14383;BME280;7275;50.328;8.720;2023-10-31T09:23:43;98481.19;;;16.64;57.14
14383;BME280;7275;50.328;8.720;2023-10-31T09:26:11;98481.91;;;16.66;57.25
14383;BME280;7275;50.328;8.720;2023-10-31T09:28:38;98481.91;;;16.66;57.15
14383;BME280;7275;50.328;8.720;2023-10-31T09:31:09;98493.53;;;16.76;57.24
14383;BME280;7275;50.328;8.720;2023-10-31T09:33:37;98489.63;;;16.81;57.37
14383;BME280;7275;50.328;8.720;2023-10-31T09:36:06;98488.88;;;16.90;57.43
14383;BME280;7275;50.328;8.720;2023-10-31T09:38:33;98486.16;;;17.01;56.99
14383;BME280;7275;50.328;8.720;2023-10-31T09:41:01;98494.66;;;17.06;57.08
14383;BME280;7275;50.328;8.720;2023-10-31T09:43:29;98493.47;;;17.19;56.66
14383;BME280;7275;50.328;8.720;2023-10-31T09:45:57;98506.47;;;17.24;56.36
14383;BME280;7275;50.328;8.720;2023-10-31T09:48:25;98501.47;;;17.30;56.51
14383;BME280;7275;50.328;8.720;2023-10-31T09:50:54;98504.31;;;17.38;56.30
14383;BME280;7275;50.328;8.720;2023-10-31T09:53:21;98511.44;;;17.49;56.25
14383;BME280;7275;50.328;8.720;2023-10-31T09:55:49;98507.22;;;17.67;56.46
14383;BME280;7275;50.328;8.720;2023-10-31T09:58:17;98515.88;;;18.01;56.08
14383;BME280;7275;50.328;8.720;2023-10-31T10:00:45;98517.03;;;18.28;55.27
14383;BME280;7275;50.328;8.720;2023-10-31T10:03:12;98499.31;;;18.37;53.97
14383;BME280;7275;50.328;8.720;2023-10-31T10:05:40;98503.97;;;18.35;54.45
14383;BME280;7275;50.328;8.720;2023-10-31T10:08:12;98513.25;;;18.41;53.69
14383;BME280;7275;50.328;8.720;2023-10-31T10:10:40;98505.91;;;18.33;53.88
14383;BME280;7275;50.328;8.720;2023-10-31T10:13:07;98507.72;;;18.23;54.15
14383;BME280;7275;50.328;8.720;2023-10-31T10:15:45;98515.44;;;18.26;53.58
14383;BME280;7275;50.328;8.720;2023-10-31T10:18:24;98513.47;;;18.18;54.21
14383;BME280;7275;50.328;8.720;2023-10-31T10:20:56;98513.63;;;18.26;54.09
14383;BME280;7275;50.328;8.720;2023-10-31T10:23:26;98520.00;;;18.35;54.21
14383;BME280;7275;50.328;8.720;2023-10-31T10:25:55;98517.41;;;18.45;54.15
14383;BME280;7275;50.328;8.720;2023-10-31T10:28:23;98513.81;;;18.65;54.13
14383;BME280;7275;50.328;8.720;2023-10-31T10:30:52;98503.13;;;18.84;53.41
14383;BME280;7275;50.328;8.720;2023-10-31T10:33:20;98505.44;;;19.07;53.25
14383;BME280;7275;50.328;8.720;2023-10-31T10:35:48;98504.50;;;19.37;52.99
14383;BME280;7275;50.328;8.720;2023-10-31T10:38:17;98497.53;;;19.82;52.79
14383;BME280;7275;50.328;8.720;2023-10-31T10:40:47;98490.47;;;20.64;51.87
14383;BME280;7275;50.328;8.720;2023-10-31T10:43:20;98488.72;;;21.53;51.04
14383;BME280;7275;50.328;8.720;2023-10-31T10:45:53;98478.69;;;22.32;49.22
14383;BME280;7275;50.328;8.720;2023-10-31T10:48:23;98487.13;;;23.29;46.17
14383;BME280;7275;50.328;8.720;2023-10-31T10:50:54;98482.59;;;24.26;45.73
14383;BME280;7275;50.328;8.720;2023-10-31T10:53:24;98467.44;;;24.94;43.42
14383;BME280;7275;50.328;8.720;2023-10-31T10:55:59;98473.75;;;25.63;41.66
14383;BME280;7275;50.328;8.720;2023-10-31T10:58:34;98468.19;;;26.16;40.63
14383;BME280;7275;50.328;8.720;2023-10-31T11:01:04;98472.59;;;26.61;39.85
14383;BME280;7275;50.328;8.720;2023-10-31T11:03:32;98467.25;;;26.97;39.13
14383;BME280;7275;50.328;8.720;2023-10-31T11:06:02;98469.28;;;27.09;36.87
14383;BME280;7275;50.328;8.720;2023-10-31T11:08:31;98466.31;;;27.25;36.88
14383;BME280;7275;50.328;8.720;2023-10-31T11:11:00;98471.66;;;27.54;36.73
14383;BME280;7275;50.328;8.720;2023-10-31T11:13:28;98465.69;;;27.87;35.38
14383;BME280;7275;50.328;8.720;2023-10-31T11:15:59;98466.94;;;28.12;36.11
14383;BME280;7275;50.328;8.720;2023-10-31T11:18:29;98463.44;;;28.18;35.74
14383;BME280;7275;50.328;8.720;2023-10-31T11:20:57;98465.44;;;28.37;34.63
14383;BME280;7275;50.328;8.720;2023-10-31T11:23:27;98467.31;;;28.64;32.89
14383;BME280;7275;50.328;8.720;2023-10-31T11:25:55;98479.25;;;28.70;32.27
14383;BME280;7275;50.328;8.720;2023-10-31T11:28:24;98457.25;;;28.65;31.22
14383;BME280;7275;50.328;8.720;2023-10-31T11:30:52;98459.25;;;28.50;30.66
14383;BME280;7275;50.328;8.720;2023-10-31T11:33:25;98455.69;;;28.49;31.87
14383;BME280;7275;50.328;8.720;2023-10-31T11:36:00;98465.13;;;28.53;32.00
14383;BME280;7275;50.328;8.720;2023-10-31T11:38:31;98459.16;;;28.64;31.86
14383;BME280;7275;50.328;8.720;2023-10-31T11:41:01;98470.47;;;28.68;30.35
14383;BME280;7275;50.328;8.720;2023-10-31T11:43:50;98482.91;;;28.56;30.98
14383;BME280;7275;50.328;8.720;2023-10-31T11:46:19;98480.88;;;28.30;30.85
14383;BME280;7275;50.328;8.720;2023-10-31T11:48:48;98490.06;;;28.01;30.56
14383;BME280;7275;50.328;8.720;2023-10-31T11:51:16;98482.78;;;27.87;30.82
14383;BME280;7275;50.328;8.720;2023-10-31T11:53:44;98489.22;;;27.80;30.88
14383;BME280;7275;50.328;8.720;2023-10-31T11:56:12;98484.63;;;27.80;31.37
14383;BME280;7275;50.328;8.720;2023-10-31T11:58:41;98489.03;;;27.81;31.94
14383;BME280;7275;50.328;8.720;2023-10-31T12:01:09;98490.31;;;27.85;31.34
14383;BME280;7275;50.328;8.720;2023-10-31T12:03:37;98492.66;;;27.88;31.25
14383;BME280;7275;50.328;8.720;2023-10-31T12:06:07;98492.50;;;28.17;31.62
14383;BME280;7275;50.328;8.720;2023-10-31T12:08:36;98492.69;;;28.50;30.78
14383;BME280;7275;50.328;8.720;2023-10-31T12:11:09;98492.16;;;29.02;29.51
14383;BME280;7275;50.328;8.720;2023-10-31T12:13:38;98502.66;;;29.11;29.03
14383;BME280;7275;50.328;8.720;2023-10-31T12:16:08;98504.31;;;28.99;29.39
14383;BME280;7275;50.328;8.720;2023-10-31T12:18:37;98514.09;;;28.94;29.96
14383;BME280;7275;50.328;8.720;2023-10-31T12:21:06;98521.72;;;29.11;30.08
14383;BME280;7275;50.328;8.720;2023-10-31T12:23:35;98526.81;;;29.21;29.67
14383;BME280;7275;50.328;8.720;2023-10-31T12:26:03;98522.97;;;29.09;28.33
14383;BME280;7275;50.328;8.720;2023-10-31T12:28:31;98522.34;;;29.07;29.81
14383;BME280;7275;50.328;8.720;2023-10-31T12:30:58;98526.25;;;29.39;29.34
14383;BME280;7275;50.328;8.720;2023-10-31T12:33:27;98534.34;;;29.86;28.82
14383;BME280;7275;50.328;8.720;2023-10-31T12:35:58;98542.13;;;30.22;27.71
14383;BME280;7275;50.328;8.720;2023-10-31T12:38:27;98530.78;;;30.57;27.99
14383;BME280;7275;50.328;8.720;2023-10-31T12:40:55;98537.44;;;30.94;28.02
14383;BME280;7275;50.328;8.720;2023-10-31T12:43:25;98537.94;;;31.29;26.73
14383;BME280;7275;50.328;8.720;2023-10-31T12:45:53;98535.97;;;31.49;26.51
14383;BME280;7275;50.328;8.720;2023-10-31T12:48:24;98541.25;;;31.75;26.32
14383;BME280;7275;50.328;8.720;2023-10-31T12:51:05;98528.59;;;31.87;25.71
14383;BME280;7275;50.328;8.720;2023-10-31T12:53:33;98529.13;;;32.02;25.63
14383;BME280;7275;50.328;8.720;2023-10-31T12:56:01;98540.25;;;32.07;25.25
14383;BME280;7275;50.328;8.720;2023-10-31T12:58:29;98535.44;;;32.27;24.44
14383;BME280;7275;50.328;8.720;2023-10-31T13:00:57;98534.94;;;32.62;24.44
14383;BME280;7275;50.328;8.720;2023-10-31T13:03:25;98541.97;;;32.94;24.35
14383;BME280;7275;50.328;8.720;2023-10-31T13:05:54;98534.91;;;33.23;24.32
14383;BME280;7275;50.328;8.720;2023-10-31T13:08:22;98534.25;;;33.57;23.52
14383;BME280;7275;50.328;8.720;2023-10-31T13:10:50;98529.03;;;33.97;22.92
14383;BME280;7275;50.328;8.720;2023-10-31T13:13:19;98533.69;;;33.96;23.52
14383;BME280;7275;50.328;8.720;2023-10-31T13:15:46;98537.25;;;33.37;23.07